sensor_id;sensor_type;location;lat;lon;timestamp;pressure;altitude;pressure_sealevel;temperature;humidity
77452;BME280;66537;52.370;4.832;2024-01-30T00:00:19;102642.16;;;8.03;100.00
77452;BME280;66537;52.370;4.832;2024-01-30T00:02:45;102625.84;;;8.06;100.00
77452;BME280;66537;52.370;4.832;2024-01-30T00:05:11;102632.69;;;8.02;100.00
77452;BME280;66537;52.370;4.832;2024-01-30T00:07:36;102630.94;;;8.00;100.00
77452;BME280;66537;52.370;4.832;2024-01-30T00:10:01;102632.56;;;7.90;100.00
77452;BME280;66537;52.370;4.832;2024-01-30T00:12:26;102631.00;;;8.07;100.00
77452;BME280;66537;52.370;4.832;2024-01-30T00:14:52;102626.72;;;8.08;100.00
77452;BME280;66537;52.370;4.832;2024-01-30T00:17:17;102632.78;;;8.11;100.00
77452;BME280;66537;52.370;4.832;2024-01-30T00:19:42;102637.03;;;8.08;100.00
77452;BME280;66537;52.370;4.832;2024-01-30T00:22:08;102640.50;;;8.11;100.00
77452;BME280;66537;52.370;4.832;2024-01-30T00:24:33;102629.25;;;8.00;100.00
77452;BME280;66537;52.370;4.832;2024-01-30T00:26:58;102618.06;;;8.01;100.00
77452;BME280;66537;52.370;4.832;2024-01-30T00:29:23;102619.94;;;8.14;100.00
77452;BME280;66537;52.370;4.832;2024-01-30T00:31:50;102619.13;;;8.18;100.00
77452;BME280;66537;52.370;4.832;2024-01-30T00:34:16;102630.19;;;8.11;100.00
77452;BME280;66537;52.370;4.832;2024-01-30T00:36:41;102631.94;;;8.12;100.00
77452;BME280;66537;52.370;4.832;2024-01-30T00:39:06;102624.97;;;8.01;100.00
77452;BME280;66537;52.370;4.832;2024-01-30T00:41:34;102628.63;;;8.23;100.00
77452;BME280;66537;52.370;4.832;2024-01-30T00:43:59;102612.38;;;8.31;100.00
77452;BME280;66537;52.370;4.832;2024-01-30T00:46:25;102610.75;;;8.41;100.00
77452;BME280;66537;52.370;4.832;2024-01-30T00:48:50;102616.72;;;8.38;100.00
77452;BME280;66537;52.370;4.832;2024-01-30T00:51:15;102621.00;;;8.35;100.00
77452;BME280;66537;52.370;4.832;2024-01-30T00:53:41;102608.16;;;8.39;100.00
77452;BME280;66537;52.370;4.832;2024-01-30T00:56:07;102608.13;;;8.36;100.00
77452;BME280;66537;52.370;4.832;2024-01-30T00:58:33;102614.19;;;8.41;100.00
77452;BME280;66537;52.370;4.832;2024-01-30T01:00:58;102615.94;;;8.45;100.00
77452;BME280;66537;52.370;4.832;2024-01-30T01:03:23;102616.00;;;8.51;100.00
77452;BME280;66537;52.370;4.832;2024-01-30T01:05:49;102625.44;;;8.52;100.00
77452;BME280;66537;52.370;4.832;2024-01-30T01:08:14;102614.13;;;8.37;100.00
77452;BME280;66537;52.370;4.832;2024-01-30T01:10:40;102613.38;;;8.50;100.00
77452;BME280;66537;52.370;4.832;2024-01-30T01:13:05;102611.66;;;8.46;100.00
77452;BME280;66537;52.370;4.832;2024-01-30T01:15:30;102624.56;;;8.47;100.00
77452;BME280;66537;52.370;4.832;2024-01-30T01:17:56;102629.53;;;8.28;100.00
77452;BME280;66537;52.370;4.832;2024-01-30T01:20:21;102633.94;;;8.38;100.00
77452;BME280;66537;52.370;4.832;2024-01-30T01:22:46;102626.28;;;8.50;100.00
77452;BME280;66537;52.370;4.832;2024-01-30T01:25:12;102616.81;;;8.47;100.00
77452;BME280;66537;52.370;4.832;2024-01-30T01:27:37;102628.91;;;8.51;100.00
77452;BME280;66537;52.370;4.832;2024-01-30T01:30:09;102618.53;;;8.48;100.00
77452;BME280;66537;52.370;4.832;2024-01-30T01:32:35;102608.28;;;8.56;100.00
77452;BME280;66537;52.370;4.832;2024-01-30T01:35:01;102594.63;;;8.69;100.00
77452;BME280;66537;52.370;4.832;2024-01-30T01:37:27;102596.31;;;8.64;100.00
77452;BME280;66537;52.370;4.832;2024-01-30T01:39:52;102598.06;;;8.68;100.00
77452;BME280;66537;52.370;4.832;2024-01-30T01:42:18;102592.06;;;8.69;100.00
77452;BME280;66537;52.370;4.832;2024-01-30T01:44:43;102614.31;;;8.58;100.00
77452;BME280;66537;52.370;4.832;2024-01-30T01:47:08;102600.63;;;8.65;100.00
77452;BME280;66537;52.370;4.832;2024-01-30T01:49:34;102592.06;;;8.72;100.00
77452;BME280;66537;52.370;4.832;2024-01-30T01:51:59;102592.09;;;8.75;100.00
77452;BME280;66537;52.370;4.832;2024-01-30T01:54:25;102586.94;;;8.75;100.00
77452;BME280;66537;52.370;4.832;2024-01-30T01:56:52;102562.81;;;8.71;100.00
77452;BME280;66537;52.370;4.832;2024-01-30T01:59:18;102563.72;;;8.81;100.00
77452;BME280;66537;52.370;4.832;2024-01-30T02:01:44;102574.09;;;8.84;100.00
77452;BME280;66537;52.370;4.832;2024-01-30T02:04:14;102571.47;;;8.75;100.00
77452;BME280;66537;52.370;4.832;2024-01-30T02:06:39;102568.88;;;8.79;100.00
77452;BME280;66537;52.370;4.832;2024-01-30T02:09:04;102562.81;;;8.70;100.00
77452;BME280;66537;52.370;4.832;2024-01-30T02:11:30;102567.13;;;8.72;100.00
77452;BME280;66537;52.370;4.832;2024-01-30T02:13:56;102589.56;;;8.82;100.00
77452;BME280;66537;52.370;4.832;2024-01-30T02:16:21;102580.03;;;8.77;100.00
77452;BME280;66537;52.370;4.832;2024-01-30T02:18:46;102570.59;;;8.73;100.00
77452;BME280;66537;52.370;4.832;2024-01-30T02:21:15;102562.84;;;8.74;100.00
77452;BME280;66537;52.370;4.832;2024-01-30T02:23:41;102564.50;;;8.68;100.00
77452;BME280;66537;52.370;4.832;2024-01-30T02:26:08;102561.00;;;8.60;100.00
77452;BME280;66537;52.370;4.832;2024-01-30T02:28:33;102559.34;;;8.68;100.00
77452;BME280;66537;52.370;4.832;2024-01-30T02:30:58;102585.94;;;8.56;100.00
77452;BME280;66537;52.370;4.832;2024-01-30T02:33:23;102590.16;;;8.50;100.00
77452;BME280;66537;52.370;4.832;2024-01-30T02:35:49;102579.91;;;8.54;100.00
77452;BME280;66537;52.370;4.832;2024-01-30T02:38:15;102581.59;;;8.49;100.00
77452;BME280;66537;52.370;4.832;2024-01-30T02:40:41;102568.72;;;8.54;100.00
77452;BME280;66537;52.370;4.832;2024-01-30T02:43:06;102567.91;;;8.64;100.00
77452;BME280;66537;52.370;4.832;2024-01-30T02:45:31;102562.66;;;8.47;100.00
77452;BME280;66537;52.370;4.832;2024-01-30T02:47:57;102567.03;;;8.57;100.00
77452;BME280;66537;52.370;4.832;2024-01-30T02:50:22;102566.13;;;8.52;100.00
77452;BME280;66537;52.370;4.832;2024-01-30T02:52:47;102556.69;;;8.54;100.00
77452;BME280;66537;52.370;4.832;2024-01-30T02:55:13;102560.06;;;8.46;100.00
77452;BME280;66537;52.370;4.832;2024-01-30T02:57:38;102560.94;;;8.48;100.00
77452;BME280;66537;52.370;4.832;2024-01-30T03:00:05;102557.47;;;8.43;100.00
77452;BME280;66537;52.370;4.832;2024-01-30T03:02:32;102549.72;;;8.41;100.00
77452;BME280;66537;52.370;4.832;2024-01-30T03:04:57;102546.31;;;8.45;100.00
77452;BME280;66537;52.370;4.832;2024-01-30T03:07:22;102545.47;;;8.48;100.00
77452;BME280;66537;52.370;4.832;2024-01-30T03:09:47;102533.38;;;8.38;100.00
77452;BME280;66537;52.370;4.832;2024-01-30T03:12:13;102531.66;;;8.43;100.00
77452;BME280;66537;52.370;4.832;2024-01-30T03:14:38;102526.56;;;8.50;100.00
77452;BME280;66537;52.370;4.832;2024-01-30T03:17:04;102529.13;;;8.49;100.00
77452;BME280;66537;52.370;4.832;2024-01-30T03:19:29;102520.50;;;8.45;100.00
77452;BME280;66537;52.370;4.832;2024-01-30T03:21:54;102525.69;;;8.50;100.00
77452;BME280;66537;52.370;4.832;2024-01-30T03:24:20;102527.38;;;8.45;100.00
77452;BME280;66537;52.370;4.832;2024-01-30T03:26:45;102528.25;;;8.44;100.00
77452;BME280;66537;52.370;4.832;2024-01-30T03:29:11;102527.38;;;8.43;100.00
77452;BME280;66537;52.370;4.832;2024-01-30T03:31:36;102520.47;;;8.36;100.00
77452;BME280;66537;52.370;4.832;2024-01-30T03:34:02;102517.94;;;8.45;100.00
77452;BME280;66537;52.370;4.832;2024-01-30T03:36:27;102518.72;;;8.32;100.00
77452;BME280;66537;52.370;4.832;2024-01-30T03:38:53;102531.53;;;8.25;100.00
77452;BME280;66537;52.370;4.832;2024-01-30T03:41:18;102532.44;;;8.33;100.00
77452;BME280;66537;52.370;4.832;2024-01-30T03:43:43;102529.00;;;8.31;100.00
77452;BME280;66537;52.370;4.832;2024-01-30T03:46:11;102529.09;;;8.40;100.00
77452;BME280;66537;52.370;4.832;2024-01-30T03:48:37;102529.03;;;8.35;100.00
77452;BME280;66537;52.370;4.832;2024-01-30T03:51:02;102525.69;;;8.45;100.00
77452;BME280;66537;52.370;4.832;2024-01-30T03:53:28;102527.34;;;8.40;100.00
77452;BME280;66537;52.370;4.832;2024-01-30T03:55:53;102522.22;;;8.46;100.00
77452;BME280;66537;52.370;4.832;2024-01-30T03:58:18;102526.56;;;8.52;100.00
77452;BME280;66537;52.370;4.832;2024-01-30T04:00:44;102516.22;;;8.46;100.00
77452;BME280;66537;52.370;4.832;2024-01-30T04:03:09;102513.66;;;8.49;100.00
77452;BME280;66537;52.370;4.832;2024-01-30T04:05:35;102512.78;;;8.45;100.00
77452;BME280;66537;52.370;4.832;2024-01-30T04:08:00;102507.63;;;8.44;100.00
77452;BME280;66537;52.370;4.832;2024-01-30T04:10:26;102498.19;;;8.52;100.00
77452;BME280;66537;52.370;4.832;2024-01-30T04:12:51;102506.78;;;8.49;100.00
77452;BME280;66537;52.370;4.832;2024-01-30T04:15:17;102513.59;;;8.40;100.00
77452;BME280;66537;52.370;4.832;2024-01-30T04:17:43;102508.50;;;8.46;100.00
77452;BME280;66537;52.370;4.832;2024-01-30T04:20:13;102517.03;;;8.40;100.00
77452;BME280;66537;52.370;4.832;2024-01-30T04:22:38;102517.09;;;8.51;100.00
77452;BME280;66537;52.370;4.832;2024-01-30T04:25:04;102516.22;;;8.46;100.00
77452;BME280;66537;52.370;4.832;2024-01-30T04:27:29;102512.72;;;8.38;100.00
77452;BME280;66537;52.370;4.832;2024-01-30T04:29:54;102509.38;;;8.48;100.00
77452;BME280;66537;52.370;4.832;2024-01-30T04:32:20;102515.31;;;8.41;100.00
77452;BME280;66537;52.370;4.832;2024-01-30T04:34:45;102511.84;;;8.36;100.00
77452;BME280;66537;52.370;4.832;2024-01-30T04:37:10;102511.91;;;8.43;100.00
77452;BME280;66537;52.370;4.832;2024-01-30T04:39:35;102504.22;;;8.48;100.00
77452;BME280;66537;52.370;4.832;2024-01-30T04:42:02;102505.09;;;8.53;100.00
77452;BME280;66537;52.370;4.832;2024-01-30T04:44:27;102500.81;;;8.53;100.00
77452;BME280;66537;52.370;4.832;2024-01-30T04:46:52;102493.03;;;8.52;100.00
77452;BME280;66537;52.370;4.832;2024-01-30T04:49:18;102489.56;;;8.50;100.00
77452;BME280;66537;52.370;4.832;2024-01-30T04:51:43;102487.94;;;8.61;100.00
77452;BME280;66537;52.370;4.832;2024-01-30T04:54:08;102491.34;;;8.57;100.00
77452;BME280;66537;52.370;4.832;2024-01-30T04:56:34;102484.50;;;8.59;100.00
77452;BME280;66537;52.370;4.832;2024-01-30T04:59:01;102472.47;;;8.61;100.00
77452;BME280;66537;52.370;4.832;2024-01-30T05:01:27;102475.03;;;8.62;100.00
77452;BME280;66537;52.370;4.832;2024-01-30T05:03:52;102474.22;;;8.65;100.00
77452;BME280;66537;52.370;4.832;2024-01-30T05:06:25;102475.84;;;8.49;100.00
77452;BME280;66537;52.370;4.832;2024-01-30T05:08:50;102472.44;;;8.56;100.00
77452;BME280;66537;52.370;4.832;2024-01-30T05:11:16;102474.22;;;8.68;100.00
77452;BME280;66537;52.370;4.832;2024-01-30T05:13:41;102476.78;;;8.68;100.00
77452;BME280;66537;52.370;4.832;2024-01-30T05:16:06;102479.44;;;8.80;100.00
77452;BME280;66537;52.370;4.832;2024-01-30T05:18:32;102479.41;;;8.77;100.00
77452;BME280;66537;52.370;4.832;2024-01-30T05:20:57;102476.88;;;8.86;100.00
77452;BME280;66537;52.370;4.832;2024-01-30T05:23:22;102480.28;;;8.77;100.00
77452;BME280;66537;52.370;4.832;2024-01-30T05:25:47;102481.19;;;8.88;100.00
77452;BME280;66537;52.370;4.832;2024-01-30T05:28:13;102478.59;;;8.85;100.00
77452;BME280;66537;52.370;4.832;2024-01-30T05:30:39;102477.72;;;8.85;100.00
77452;BME280;66537;52.370;4.832;2024-01-30T05:33:04;102477.78;;;8.94;100.00
77452;BME280;66537;52.370;4.832;2024-01-30T05:35:29;102484.66;;;8.92;100.00
77452;BME280;66537;52.370;4.832;2024-01-30T05:37:55;102492.34;;;8.83;100.00
77452;BME280;66537;52.370;4.832;2024-01-30T05:40:20;102485.50;;;8.91;100.00
77452;BME280;66537;52.370;4.832;2024-01-30T05:42:45;102479.47;;;8.89;100.00
77452;BME280;66537;52.370;4.832;2024-01-30T05:45:11;102482.81;;;8.68;100.00
77452;BME280;66537;52.370;4.832;2024-01-30T05:47:36;102485.41;;;8.67;100.00
77452;BME280;66537;52.370;4.832;2024-01-30T05:50:01;102492.34;;;8.78;100.00
77452;BME280;66537;52.370;4.832;2024-01-30T05:52:27;102488.06;;;8.85;100.00
77452;BME280;66537;52.370;4.832;2024-01-30T05:54:52;102484.59;;;8.78;100.00
77452;BME280;66537;52.370;4.832;2024-01-30T05:57:17;102478.56;;;8.81;100.00
77452;BME280;66537;52.370;4.832;2024-01-30T05:59:43;102481.16;;;8.75;100.00
77452;BME280;66537;52.370;4.832;2024-01-30T06:02:10;102473.41;;;8.76;100.00
77452;BME280;66537;52.370;4.832;2024-01-30T06:04:35;102476.03;;;8.84;100.00
77452;BME280;66537;52.370;4.832;2024-01-30T06:07:01;102466.53;;;8.81;100.00
77452;BME280;66537;52.370;4.832;2024-01-30T06:09:27;102470.84;;;8.85;100.00
77452;BME280;66537;52.370;4.832;2024-01-30T06:11:53;102466.56;;;8.89;100.00
77452;BME280;66537;52.370;4.832;2024-01-30T06:14:18;102472.59;;;8.92;100.00
77452;BME280;66537;52.370;4.832;2024-01-30T06:16:44;102476.91;;;8.93;100.00
77452;BME280;66537;52.370;4.832;2024-01-30T06:19:09;102478.56;;;8.78;100.00
77452;BME280;66537;52.370;4.832;2024-01-30T06:21:34;102485.50;;;8.88;100.00
77452;BME280;66537;52.370;4.832;2024-01-30T06:24:02;102491.47;;;8.81;100.00
77452;BME280;66537;52.370;4.832;2024-01-30T06:26:27;102483.72;;;8.79;100.00
77452;BME280;66537;52.370;4.832;2024-01-30T06:28:53;102489.78;;;8.86;100.00
77452;BME280;66537;52.370;4.832;2024-01-30T06:31:18;102488.13;;;8.94;100.00
77452;BME280;66537;52.370;4.832;2024-01-30T06:33:46;102482.94;;;8.97;100.00
77452;BME280;66537;52.370;4.832;2024-01-30T06:36:11;102478.66;;;8.96;100.00
77452;BME280;66537;52.370;4.832;2024-01-30T06:38:36;102479.47;;;8.86;100.00
77452;BME280;66537;52.370;4.832;2024-01-30T06:41:02;102484.66;;;8.95;100.00
77452;BME280;66537;52.370;4.832;2024-01-30T06:43:27;102488.88;;;8.81;100.00
77452;BME280;66537;52.370;4.832;2024-01-30T06:45:52;102488.94;;;8.90;100.00
77452;BME280;66537;52.370;4.832;2024-01-30T06:48:18;102484.66;;;8.92;100.00
77452;BME280;66537;52.370;4.832;2024-01-30T06:50:43;102483.81;;;8.96;100.00
77452;BME280;66537;52.370;4.832;2024-01-30T06:53:08;102487.25;;;8.96;100.00
77452;BME280;66537;52.370;4.832;2024-01-30T06:55:34;102488.97;;;9.00;100.00
77452;BME280;66537;52.370;4.832;2024-01-30T06:57:59;102494.16;;;9.00;100.00
77452;BME280;66537;52.370;4.832;2024-01-30T07:00:24;102490.66;;;8.86;100.00
77452;BME280;66537;52.370;4.832;2024-01-30T07:02:50;102478.66;;;8.99;100.00
77452;BME280;66537;52.370;4.832;2024-01-30T07:05:15;102483.78;;;8.93;100.00
77452;BME280;66537;52.370;4.832;2024-01-30T07:07:42;102494.16;;;9.06;100.00
77452;BME280;66537;52.370;4.832;2024-01-30T07:10:07;102492.44;;;9.01;100.00
77452;BME280;66537;52.370;4.832;2024-01-30T07:12:33;102504.50;;;9.05;100.00
77452;BME280;66537;52.370;4.832;2024-01-30T07:14:58;102512.28;;;9.11;100.00
77452;BME280;66537;52.370;4.832;2024-01-30T07:17:24;102516.56;;;9.09;100.00
77452;BME280;66537;52.370;4.832;2024-01-30T07:19:50;102514.00;;;9.14;100.00
77452;BME280;66537;52.370;4.832;2024-01-30T07:22:15;102515.75;;;9.22;100.00
77452;BME280;66537;52.370;4.832;2024-01-30T07:24:44;102509.69;;;9.09;100.00
77452;BME280;66537;52.370;4.832;2024-01-30T07:27:14;102515.72;;;9.15;100.00
77452;BME280;66537;52.370;4.832;2024-01-30T07:29:40;102517.47;;;9.26;100.00
77452;BME280;66537;52.370;4.832;2024-01-30T07:32:05;102518.31;;;9.22;100.00
77452;BME280;66537;52.370;4.832;2024-01-30T07:34:30;102523.50;;;9.19;100.00
77452;BME280;66537;52.370;4.832;2024-01-30T07:36:56;102516.63;;;9.26;100.00
77452;BME280;66537;52.370;4.832;2024-01-30T07:39:21;102516.59;;;9.15;100.00
77452;BME280;66537;52.370;4.832;2024-01-30T07:41:46;102520.91;;;9.21;100.00
77452;BME280;66537;52.370;4.832;2024-01-30T07:44:12;102529.53;;;9.24;100.00
77452;BME280;66537;52.370;4.832;2024-01-30T07:46:37;102529.56;;;9.32;100.00
77452;BME280;66537;52.370;4.832;2024-01-30T07:49:03;102531.28;;;9.33;100.00
77452;BME280;66537;52.370;4.832;2024-01-30T07:51:28;102538.16;;;9.34;100.00
77452;BME280;66537;52.370;4.832;2024-01-30T07:53:54;102543.28;;;9.22;100.00
77452;BME280;66537;52.370;4.832;2024-01-30T07:56:20;102545.06;;;9.35;100.00
77452;BME280;66537;52.370;4.832;2024-01-30T07:58:45;102542.47;;;9.32;100.00
77452;BME280;66537;52.370;4.832;2024-01-30T08:01:11;102539.00;;;9.30;100.00
77452;BME280;66537;52.370;4.832;2024-01-30T08:03:36;102545.06;;;9.36;100.00
77452;BME280;66537;52.370;4.832;2024-01-30T08:06:02;102547.66;;;9.38;100.00
77452;BME280;66537;52.370;4.832;2024-01-30T08:08:28;102551.91;;;9.31;100.00
77452;BME280;66537;52.370;4.832;2024-01-30T08:10:53;102550.22;;;9.41;100.00
77452;BME280;66537;52.370;4.832;2024-01-30T08:13:18;102545.94;;;9.41;100.00
77452;BME280;66537;52.370;4.832;2024-01-30T08:15:44;102545.13;;;9.59;100.00
77452;BME280;66537;52.370;4.832;2024-01-30T08:18:09;102548.56;;;9.53;100.00
77452;BME280;66537;52.370;4.832;2024-01-30T08:20:34;102541.66;;;9.49;100.00
77452;BME280;66537;52.370;4.832;2024-01-30T08:23:00;102544.28;;;9.63;100.00
77452;BME280;66537;52.370;4.832;2024-01-30T08:25:25;102556.28;;;9.46;100.00
77452;BME280;66537;52.370;4.832;2024-01-30T08:27:51;102560.59;;;9.54;100.00
77452;BME280;66537;52.370;4.832;2024-01-30T08:30:16;102537.41;;;9.62;100.00
77452;BME280;66537;52.370;4.832;2024-01-30T08:32:41;102555.50;;;9.62;100.00
77452;BME280;66537;52.370;4.832;2024-01-30T08:35:07;102569.25;;;9.59;100.00
77452;BME280;66537;52.370;4.832;2024-01-30T08:37:33;102565.72;;;9.41;100.00
77452;BME280;66537;52.370;4.832;2024-01-30T08:39:59;102555.41;;;9.41;100.00
77452;BME280;66537;52.370;4.832;2024-01-30T08:42:25;102567.47;;;9.42;100.00
77452;BME280;66537;52.370;4.832;2024-01-30T08:44:50;102574.34;;;9.43;100.00
77452;BME280;66537;52.370;4.832;2024-01-30T08:47:17;102579.56;;;9.55;100.00
77452;BME280;66537;52.370;4.832;2024-01-30T08:49:43;102572.72;;;9.61;100.00
77452;BME280;66537;52.370;4.832;2024-01-30T08:52:10;102563.25;;;9.71;100.00
77452;BME280;66537;52.370;4.832;2024-01-30T08:54:35;102564.97;;;9.67;100.00
77452;BME280;66537;52.370;4.832;2024-01-30T08:57:01;102570.19;;;9.81;100.00
77452;BME280;66537;52.370;4.832;2024-01-30T08:59:26;102568.47;;;9.96;100.00
77452;BME280;66537;52.370;4.832;2024-01-30T09:01:51;102570.19;;;10.03;100.00
77452;BME280;66537;52.370;4.832;2024-01-30T09:04:20;102572.81;;;10.13;100.00
77452;BME280;66537;52.370;4.832;2024-01-30T09:06:45;102567.66;;;10.17;100.00
77452;BME280;66537;52.370;4.832;2024-01-30T09:09:11;102561.63;;;10.20;100.00
77452;BME280;66537;52.370;4.832;2024-01-30T09:11:36;102567.66;;;10.14;100.00
77452;BME280;66537;52.370;4.832;2024-01-30T09:14:02;102576.28;;;10.16;100.00
77452;BME280;66537;52.370;4.832;2024-01-30T09:16:27;102571.97;;;10.15;100.00
77452;BME280;66537;52.370;4.832;2024-01-30T09:18:53;102587.44;;;10.03;100.00
77452;BME280;66537;52.370;4.832;2024-01-30T09:21:19;102584.00;;;10.02;100.00
77452;BME280;66537;52.370;4.832;2024-01-30T09:23:44;102586.56;;;9.89;100.00
77452;BME280;66537;52.370;4.832;2024-01-30T09:26:09;102583.94;;;9.87;100.00
77452;BME280;66537;52.370;4.832;2024-01-30T09:28:35;102594.28;;;9.75;100.00
77452;BME280;66537;52.370;4.832;2024-01-30T09:31:00;102598.59;;;9.75;100.00
77452;BME280;66537;52.370;4.832;2024-01-30T09:33:26;102594.28;;;9.71;100.00
77452;BME280;66537;52.370;4.832;2024-01-30T09:35:51;102608.00;;;9.62;100.00
77452;BME280;66537;52.370;4.832;2024-01-30T09:38:16;102608.00;;;9.62;100.00
77452;BME280;66537;52.370;4.832;2024-01-30T09:40:42;102608.88;;;9.61;100.00
77452;BME280;66537;52.370;4.832;2024-01-30T09:43:07;102619.25;;;9.69;100.00
77452;BME280;66537;52.370;4.832;2024-01-30T09:45:33;102610.63;;;9.67;100.00
77452;BME280;66537;52.370;4.832;2024-01-30T09:48:00;102611.47;;;9.60;100.00
77452;BME280;66537;52.370;4.832;2024-01-30T09:50:26;102608.84;;;9.58;100.00
77452;BME280;66537;52.370;4.832;2024-01-30T09:52:53;102614.03;;;9.52;100.00
77452;BME280;66537;52.370;4.832;2024-01-30T09:55:20;102609.69;;;9.42;100.00
77452;BME280;66537;52.370;4.832;2024-01-30T09:57:45;102614.81;;;9.41;100.00
77452;BME280;66537;52.370;4.832;2024-01-30T10:00:12;102606.19;;;9.36;100.00
77452;BME280;66537;52.370;4.832;2024-01-30T10:02:38;102623.41;;;9.32;100.00
77452;BME280;66537;52.370;4.832;2024-01-30T10:05:04;102639.72;;;9.28;100.00
77452;BME280;66537;52.370;4.832;2024-01-30T10:07:30;102650.03;;;9.19;100.00
77452;BME280;66537;52.370;4.832;2024-01-30T10:09:56;102633.63;;;9.11;100.00
77452;BME280;66537;52.370;4.832;2024-01-30T10:12:22;102634.50;;;9.12;100.00
77452;BME280;66537;52.370;4.832;2024-01-30T10:14:47;102641.38;;;9.14;100.00
77452;BME280;66537;52.370;4.832;2024-01-30T10:17:12;102627.59;;;9.09;100.00
77452;BME280;66537;52.370;4.832;2024-01-30T10:19:39;102629.34;;;9.15;100.00
77452;BME280;66537;52.370;4.832;2024-01-30T10:22:05;102634.44;;;9.07;100.00
77452;BME280;66537;52.370;4.832;2024-01-30T10:24:30;102632.66;;;8.97;100.00
77452;BME280;66537;52.370;4.832;2024-01-30T10:26:56;102632.72;;;9.03;100.00
77452;BME280;66537;52.370;4.832;2024-01-30T10:29:21;102640.41;;;8.98;100.00
77452;BME280;66537;52.370;4.832;2024-01-30T10:32:00;102643.84;;;8.99;100.00
77452;BME280;66537;52.370;4.832;2024-01-30T10:34:26;102636.13;;;8.97;100.00
77452;BME280;66537;52.370;4.832;2024-01-30T10:36:59;102649.91;;;8.99;100.00
77452;BME280;66537;52.370;4.832;2024-01-30T10:39:28;102655.78;;;8.83;100.00
77452;BME280;66537;52.370;4.832;2024-01-30T10:41:56;102646.25;;;8.73;100.00
77452;BME280;66537;52.370;4.832;2024-01-30T10:44:23;102654.00;;;8.72;100.00
77452;BME280;66537;52.370;4.832;2024-01-30T10:46:56;102646.25;;;8.70;100.00
77452;BME280;66537;52.370;4.832;2024-01-30T10:49:24;102664.25;;;8.66;100.00
77452;BME280;66537;52.370;4.832;2024-01-30T10:51:49;102663.38;;;8.65;100.00
77452;BME280;66537;52.370;4.832;2024-01-30T10:54:17;102670.28;;;8.65;100.00
77452;BME280;66537;52.370;4.832;2024-01-30T10:56:43;102666.84;;;8.66;100.00
77452;BME280;66537;52.370;4.832;2024-01-30T10:59:09;102677.91;;;8.56;100.00
77452;BME280;66537;52.370;4.832;2024-01-30T11:01:35;102674.44;;;8.48;100.00
77452;BME280;66537;52.370;4.832;2024-01-30T11:04:01;102675.25;;;8.44;100.00
77452;BME280;66537;52.370;4.832;2024-01-30T11:06:26;102657.91;;;8.29;100.00
77452;BME280;66537;52.370;4.832;2024-01-30T11:09:05;102682.75;;;8.24;100.00
77452;BME280;66537;52.370;4.832;2024-01-30T11:11:57;102680.06;;;8.15;100.00
77452;BME280;66537;52.370;4.832;2024-01-30T11:14:27;102687.84;;;8.18;100.00
77452;BME280;66537;52.370;4.832;2024-01-30T11:16:57;102687.78;;;8.13;100.00
77452;BME280;66537;52.370;4.832;2024-01-30T11:19:23;102680.94;;;8.15;100.00
77452;BME280;66537;52.370;4.832;2024-01-30T11:21:51;102684.44;;;8.20;100.00
77452;BME280;66537;52.370;4.832;2024-01-30T11:24:22;102682.69;;;8.18;100.00
77452;BME280;66537;52.370;4.832;2024-01-30T11:26:56;102677.66;;;8.26;100.00
77452;BME280;66537;52.370;4.832;2024-01-30T11:29:29;102691.41;;;8.28;100.00
77452;BME280;66537;52.370;4.832;2024-01-30T11:31:55;102687.19;;;8.34;100.00
77452;BME280;66537;52.370;4.832;2024-01-30T11:34:21;102674.31;;;8.34;100.00
77452;BME280;66537;52.370;4.832;2024-01-30T11:36:57;102682.00;;;8.31;100.00
77452;BME280;66537;52.370;4.832;2024-01-30T11:39:27;102675.16;;;8.33;100.00
77452;BME280;66537;52.370;4.832;2024-01-30T11:41:52;102686.34;;;8.34;100.00
77452;BME280;66537;52.370;4.832;2024-01-30T11:44:21;102672.69;;;8.47;100.00
77452;BME280;66537;52.370;4.832;2024-01-30T11:46:53;102676.16;;;8.52;100.00
77452;BME280;66537;52.370;4.832;2024-01-30T11:49:18;102675.28;;;8.50;100.00
77452;BME280;66537;52.370;4.832;2024-01-30T11:51:47;102677.09;;;8.57;100.00
77452;BME280;66537;52.370;4.832;2024-01-30T11:54:16;102675.28;;;8.50;100.00
77452;BME280;66537;52.370;4.832;2024-01-30T11:56:42;102671.09;;;8.61;100.00
77452;BME280;66537;52.370;4.832;2024-01-30T11:59:10;102677.91;;;8.54;100.00
77452;BME280;66537;52.370;4.832;2024-01-30T12:01:36;102689.94;;;8.54;100.00
77452;BME280;66537;52.370;4.832;2024-01-30T12:04:01;102676.16;;;8.52;100.00
77452;BME280;66537;52.370;4.832;2024-01-30T12:06:28;102685.59;;;8.48;100.00
77452;BME280;66537;52.370;4.832;2024-01-30T12:09:01;102690.69;;;8.41;100.00
77452;BME280;66537;52.370;4.832;2024-01-30T12:11:29;102696.66;;;8.34;100.00
77452;BME280;66537;52.370;4.832;2024-01-30T12:13:55;102692.38;;;8.36;100.00
77452;BME280;66537;52.370;4.832;2024-01-30T12:16:21;102700.81;;;8.24;100.00
77452;BME280;66537;52.370;4.832;2024-01-30T12:18:47;102700.81;;;8.24;100.00
77452;BME280;66537;52.370;4.832;2024-01-30T12:21:12;102693.00;;;8.16;100.00
77452;BME280;66537;52.370;4.832;2024-01-30T12:23:41;102687.88;;;8.21;100.00
77452;BME280;66537;52.370;4.832;2024-01-30T12:26:06;102701.63;;;8.21;100.00
77452;BME280;66537;52.370;4.832;2024-01-30T12:28:33;102704.22;;;8.21;100.00
77452;BME280;66537;52.370;4.832;2024-01-30T12:31:02;102703.44;;;8.29;100.00
77452;BME280;66537;52.370;4.832;2024-01-30T12:33:28;102709.53;;;8.35;100.00
77452;BME280;66537;52.370;4.832;2024-01-30T12:35:54;102700.97;;;8.36;100.00
77452;BME280;66537;52.370;4.832;2024-01-30T12:38:19;102700.97;;;8.36;100.00
77452;BME280;66537;52.370;4.832;2024-01-30T12:40:45;102694.09;;;8.37;100.00
77452;BME280;66537;52.370;4.832;2024-01-30T12:43:10;102703.63;;;8.45;100.00